sensor_id;sensor_type;location;lat;lon;timestamp;temperature;humidity
61016;DHT22;46902;52.920;6.536;2023-04-23T00:01:57;8.10;99.90
61016;DHT22;46902;52.920;6.536;2023-04-23T00:04:24;8.10;99.90
61016;DHT22;46902;52.920;6.536;2023-04-23T00:06:51;8.10;99.90
61016;DHT22;46902;52.920;6.536;2023-04-23T00:09:17;8.10;99.90
61016;DHT22;46902;52.920;6.536;2023-04-23T00:11:43;8.10;99.90
61016;DHT22;46902;52.920;6.536;2023-04-23T00:14:09;8.00;99.90
61016;DHT22;46902;52.920;6.536;2023-04-23T00:16:36;8.00;99.90
61016;DHT22;46902;52.920;6.536;2023-04-23T00:19:02;8.00;99.90
61016;DHT22;46902;52.920;6.536;2023-04-23T00:21:27;7.90;99.90
61016;DHT22;46902;52.920;6.536;2023-04-23T00:23:53;8.00;99.90
61016;DHT22;46902;52.920;6.536;2023-04-23T00:26:19;7.90;99.90
61016;DHT22;46902;52.920;6.536;2023-04-23T00:28:45;7.90;99.90
61016;DHT22;46902;52.920;6.536;2023-04-23T00:31:10;7.90;99.90
61016;DHT22;46902;52.920;6.536;2023-04-23T00:33:36;7.90;99.90
61016;DHT22;46902;52.920;6.536;2023-04-23T00:36:02;7.90;99.90
61016;DHT22;46902;52.920;6.536;2023-04-23T00:38:28;7.90;99.90
61016;DHT22;46902;52.920;6.536;2023-04-23T00:40:54;7.90;99.90
61016;DHT22;46902;52.920;6.536;2023-04-23T00:43:20;8.00;99.90
61016;DHT22;46902;52.920;6.536;2023-04-23T00:45:46;7.90;99.90
61016;DHT22;46902;52.920;6.536;2023-04-23T00:48:12;7.90;99.90
61016;DHT22;46902;52.920;6.536;2023-04-23T00:50:38;7.90;99.90
61016;DHT22;46902;52.920;6.536;2023-04-23T00:53:04;7.90;99.90
61016;DHT22;46902;52.920;6.536;2023-04-23T00:55:30;7.80;99.90
61016;DHT22;46902;52.920;6.536;2023-04-23T00:57:55;7.80;99.90
61016;DHT22;46902;52.920;6.536;2023-04-23T01:00:21;7.80;99.90
61016;DHT22;46902;52.920;6.536;2023-04-23T01:02:48;7.80;99.90
61016;DHT22;46902;52.920;6.536;2023-04-23T01:05:15;7.80;99.90
61016;DHT22;46902;52.920;6.536;2023-04-23T01:07:43;7.80;99.90
61016;DHT22;46902;52.920;6.536;2023-04-23T01:10:10;7.70;99.90
61016;DHT22;46902;52.920;6.536;2023-04-23T01:12:36;7.70;99.90
61016;DHT22;46902;52.920;6.536;2023-04-23T01:15:02;7.70;99.90
61016;DHT22;46902;52.920;6.536;2023-04-23T01:17:29;7.70;99.90
61016;DHT22;46902;52.920;6.536;2023-04-23T01:19:54;7.70;99.90
61016;DHT22;46902;52.920;6.536;2023-04-23T01:22:20;7.70;99.90
61016;DHT22;46902;52.920;6.536;2023-04-23T01:24:46;7.70;99.90
61016;DHT22;46902;52.920;6.536;2023-04-23T01:27:12;7.70;99.90
61016;DHT22;46902;52.920;6.536;2023-04-23T01:29:38;7.70;99.90
61016;DHT22;46902;52.920;6.536;2023-04-23T01:32:04;7.60;99.90
61016;DHT22;46902;52.920;6.536;2023-04-23T01:34:31;7.70;99.90
61016;DHT22;46902;52.920;6.536;2023-04-23T01:37:02;7.60;99.90
61016;DHT22;46902;52.920;6.536;2023-04-23T01:39:28;7.70;99.90
61016;DHT22;46902;52.920;6.536;2023-04-23T01:41:54;7.60;99.90
61016;DHT22;46902;52.920;6.536;2023-04-23T01:44:19;7.60;99.90
61016;DHT22;46902;52.920;6.536;2023-04-23T01:46:45;7.70;99.90
61016;DHT22;46902;52.920;6.536;2023-04-23T01:49:11;7.70;99.90
61016;DHT22;46902;52.920;6.536;2023-04-23T01:51:37;7.70;99.90
61016;DHT22;46902;52.920;6.536;2023-04-23T01:54:03;7.70;99.90
61016;DHT22;46902;52.920;6.536;2023-04-23T01:56:28;7.80;99.90
61016;DHT22;46902;52.920;6.536;2023-04-23T01:58:55;7.80;99.90
61016;DHT22;46902;52.920;6.536;2023-04-23T02:01:21;7.70;99.90
61016;DHT22;46902;52.920;6.536;2023-04-23T02:03:48;7.80;99.90
61016;DHT22;46902;52.920;6.536;2023-04-23T02:06:14;7.70;99.90
61016;DHT22;46902;52.920;6.536;2023-04-23T02:08:40;7.80;99.90
61016;DHT22;46902;52.920;6.536;2023-04-23T02:11:05;7.80;99.90
61016;DHT22;46902;52.920;6.536;2023-04-23T02:13:31;7.80;99.90
61016;DHT22;46902;52.920;6.536;2023-04-23T02:15:57;7.90;99.90
61016;DHT22;46902;52.920;6.536;2023-04-23T02:18:23;7.90;99.90
61016;DHT22;46902;52.920;6.536;2023-04-23T02:20:49;8.00;99.90
61016;DHT22;46902;52.920;6.536;2023-04-23T02:23:14;8.00;99.90
61016;DHT22;46902;52.920;6.536;2023-04-23T02:25:40;8.00;99.90
61016;DHT22;46902;52.920;6.536;2023-04-23T02:28:08;8.00;99.90
61016;DHT22;46902;52.920;6.536;2023-04-23T02:30:36;8.10;99.90
61016;DHT22;46902;52.920;6.536;2023-04-23T02:33:02;8.10;99.90
61016;DHT22;46902;52.920;6.536;2023-04-23T02:35:29;8.10;99.90
61016;DHT22;46902;52.920;6.536;2023-04-23T02:37:55;8.10;99.90
61016;DHT22;46902;52.920;6.536;2023-04-23T02:40:20;8.10;99.90
61016;DHT22;46902;52.920;6.536;2023-04-23T02:42:46;8.00;99.90
61016;DHT22;46902;52.920;6.536;2023-04-23T02:45:12;8.10;99.90
61016;DHT22;46902;52.920;6.536;2023-04-23T02:47:38;8.10;99.90
61016;DHT22;46902;52.920;6.536;2023-04-23T02:50:04;8.10;99.90
61016;DHT22;46902;52.920;6.536;2023-04-23T02:52:31;8.20;99.90
61016;DHT22;46902;52.920;6.536;2023-04-23T02:54:58;8.10;99.90
61016;DHT22;46902;52.920;6.536;2023-04-23T02:57:23;8.20;99.90
61016;DHT22;46902;52.920;6.536;2023-04-23T02:59:49;8.20;99.90
61016;DHT22;46902;52.920;6.536;2023-04-23T03:02:15;8.20;99.90
61016;DHT22;46902;52.920;6.536;2023-04-23T03:04:41;8.10;99.90
61016;DHT22;46902;52.920;6.536;2023-04-23T03:07:06;8.20;99.90
61016;DHT22;46902;52.920;6.536;2023-04-23T03:09:32;8.20;99.90
61016;DHT22;46902;52.920;6.536;2023-04-23T03:11:58;8.20;99.90
61016;DHT22;46902;52.920;6.536;2023-04-23T03:14:23;8.20;99.90
61016;DHT22;46902;52.920;6.536;2023-04-23T03:16:49;8.10;99.90
61016;DHT22;46902;52.920;6.536;2023-04-23T03:19:15;8.10;99.90
61016;DHT22;46902;52.920;6.536;2023-04-23T03:21:41;8.10;99.90
61016;DHT22;46902;52.920;6.536;2023-04-23T03:24:06;8.10;99.90
61016;DHT22;46902;52.920;6.536;2023-04-23T03:26:32;8.10;99.90
61016;DHT22;46902;52.920;6.536;2023-04-23T03:28:59;8.10;99.90
61016;DHT22;46902;52.920;6.536;2023-04-23T03:31:24;8.10;99.90
61016;DHT22;46902;52.920;6.536;2023-04-23T03:33:50;8.00;99.90
61016;DHT22;46902;52.920;6.536;2023-04-23T03:36:15;8.00;99.90
61016;DHT22;46902;52.920;6.536;2023-04-23T03:38:41;8.10;99.90
61016;DHT22;46902;52.920;6.536;2023-04-23T03:41:07;8.00;99.90
61016;DHT22;46902;52.920;6.536;2023-04-23T03:43:32;8.10;99.90
61016;DHT22;46902;52.920;6.536;2023-04-23T03:45:58;8.10;99.90
61016;DHT22;46902;52.920;6.536;2023-04-23T03:48:23;8.10;99.90
61016;DHT22;46902;52.920;6.536;2023-04-23T03:50:49;8.00;99.90
61016;DHT22;46902;52.920;6.536;2023-04-23T03:53:15;8.10;99.90
61016;DHT22;46902;52.920;6.536;2023-04-23T03:55:45;8.10;99.90
61016;DHT22;46902;52.920;6.536;2023-04-23T03:58:10;8.00;99.90
61016;DHT22;46902;52.920;6.536;2023-04-23T04:00:36;8.10;99.90
61016;DHT22;46902;52.920;6.536;2023-04-23T04:03:02;8.00;99.90
61016;DHT22;46902;52.920;6.536;2023-04-23T04:05:28;8.00;99.90
61016;DHT22;46902;52.920;6.536;2023-04-23T04:07:54;8.00;99.90
61016;DHT22;46902;52.920;6.536;2023-04-23T04:10:20;8.00;99.90
61016;DHT22;46902;52.920;6.536;2023-04-23T04:12:45;8.00;99.90
61016;DHT22;46902;52.920;6.536;2023-04-23T04:15:13;8.00;99.90
61016;DHT22;46902;52.920;6.536;2023-04-23T04:17:39;8.00;99.90
61016;DHT22;46902;52.920;6.536;2023-04-23T04:20:06;8.10;99.90
61016;DHT22;46902;52.920;6.536;2023-04-23T04:22:35;8.10;99.90
61016;DHT22;46902;52.920;6.536;2023-04-23T04:25:01;8.10;99.90
61016;DHT22;46902;52.920;6.536;2023-04-23T04:27:27;8.10;99.90
61016;DHT22;46902;52.920;6.536;2023-04-23T04:29:52;8.20;99.90
61016;DHT22;46902;52.920;6.536;2023-04-23T04:32:18;8.20;99.90
61016;DHT22;46902;52.920;6.536;2023-04-23T04:34:43;8.20;99.90
61016;DHT22;46902;52.920;6.536;2023-04-23T04:37:09;8.20;99.90
61016;DHT22;46902;52.920;6.536;2023-04-23T04:39:35;8.30;99.90
61016;DHT22;46902;52.920;6.536;2023-04-23T04:42:02;8.30;99.90
61016;DHT22;46902;52.920;6.536;2023-04-23T04:44:28;8.30;99.90
61016;DHT22;46902;52.920;6.536;2023-04-23T04:46:54;8.30;99.90
61016;DHT22;46902;52.920;6.536;2023-04-23T04:49:20;8.30;99.90
61016;DHT22;46902;52.920;6.536;2023-04-23T04:51:46;8.30;99.90
61016;DHT22;46902;52.920;6.536;2023-04-23T04:54:12;8.30;99.90
61016;DHT22;46902;52.920;6.536;2023-04-23T04:56:38;8.40;99.90
61016;DHT22;46902;52.920;6.536;2023-04-23T04:59:04;8.40;99.90
61016;DHT22;46902;52.920;6.536;2023-04-23T05:01:30;8.40;99.90
61016;DHT22;46902;52.920;6.536;2023-04-23T05:03:56;8.40;99.90
61016;DHT22;46902;52.920;6.536;2023-04-23T05:06:22;8.40;99.90
61016;DHT22;46902;52.920;6.536;2023-04-23T05:08:48;8.60;99.90
61016;DHT22;46902;52.920;6.536;2023-04-23T05:11:15;8.60;99.90
61016;DHT22;46902;52.920;6.536;2023-04-23T05:13:42;8.60;99.90
61016;DHT22;46902;52.920;6.536;2023-04-23T05:16:08;8.70;99.90
61016;DHT22;46902;52.920;6.536;2023-04-23T05:18:34;8.70;99.90
61016;DHT22;46902;52.920;6.536;2023-04-23T05:20:59;8.70;99.90
61016;DHT22;46902;52.920;6.536;2023-04-23T05:23:25;8.70;99.90
61016;DHT22;46902;52.920;6.536;2023-04-23T05:25:51;8.70;99.90
61016;DHT22;46902;52.920;6.536;2023-04-23T05:28:20;8.70;99.90
61016;DHT22;46902;52.920;6.536;2023-04-23T05:30:46;8.80;99.90
61016;DHT22;46902;52.920;6.536;2023-04-23T05:33:11;8.70;99.90
61016;DHT22;46902;52.920;6.536;2023-04-23T05:35:37;8.80;99.90
61016;DHT22;46902;52.920;6.536;2023-04-23T05:38:02;8.80;99.90
61016;DHT22;46902;52.920;6.536;2023-04-23T05:40:29;8.80;99.90
61016;DHT22;46902;52.920;6.536;2023-04-23T05:42:58;8.80;99.90
61016;DHT22;46902;52.920;6.536;2023-04-23T05:45:24;8.80;99.90
61016;DHT22;46902;52.920;6.536;2023-04-23T05:47:49;8.90;99.90
61016;DHT22;46902;52.920;6.536;2023-04-23T05:50:16;8.90;99.90
61016;DHT22;46902;52.920;6.536;2023-04-23T05:52:42;8.90;99.90
61016;DHT22;46902;52.920;6.536;2023-04-23T05:55:07;8.90;99.90
61016;DHT22;46902;52.920;6.536;2023-04-23T05:57:35;8.90;99.90
61016;DHT22;46902;52.920;6.536;2023-04-23T06:00:01;9.00;99.90
61016;DHT22;46902;52.920;6.536;2023-04-23T06:02:26;9.00;99.90
61016;DHT22;46902;52.920;6.536;2023-04-23T06:04:53;9.10;99.90
61016;DHT22;46902;52.920;6.536;2023-04-23T06:07:19;9.10;99.90
61016;DHT22;46902;52.920;6.536;2023-04-23T06:09:45;9.20;99.90
61016;DHT22;46902;52.920;6.536;2023-04-23T06:12:10;9.20;99.90
61016;DHT22;46902;52.920;6.536;2023-04-23T06:14:36;9.30;99.90
61016;DHT22;46902;52.920;6.536;2023-04-23T06:17:01;9.30;99.90
61016;DHT22;46902;52.920;6.536;2023-04-23T06:19:27;9.40;99.90
61016;DHT22;46902;52.920;6.536;2023-04-23T06:21:53;9.50;99.90
61016;DHT22;46902;52.920;6.536;2023-04-23T06:24:19;9.50;99.90
61016;DHT22;46902;52.920;6.536;2023-04-23T06:26:44;9.60;99.90
61016;DHT22;46902;52.920;6.536;2023-04-23T06:29:10;9.70;99.90
61016;DHT22;46902;52.920;6.536;2023-04-23T06:31:36;9.70;99.90
61016;DHT22;46902;52.920;6.536;2023-04-23T06:34:01;9.70;99.90
61016;DHT22;46902;52.920;6.536;2023-04-23T06:36:28;9.80;99.90
61016;DHT22;46902;52.920;6.536;2023-04-23T06:38:53;9.80;99.90
61016;DHT22;46902;52.920;6.536;2023-04-23T06:41:19;9.90;99.90
61016;DHT22;46902;52.920;6.536;2023-04-23T06:43:45;10.00;99.90
61016;DHT22;46902;52.920;6.536;2023-04-23T06:46:13;10.00;99.90
61016;DHT22;46902;52.920;6.536;2023-04-23T06:48:39;10.00;99.90
61016;DHT22;46902;52.920;6.536;2023-04-23T06:51:04;10.10;99.90
61016;DHT22;46902;52.920;6.536;2023-04-23T06:53:30;10.10;99.90
61016;DHT22;46902;52.920;6.536;2023-04-23T06:55:56;10.10;99.90
61016;DHT22;46902;52.920;6.536;2023-04-23T06:58:22;10.20;99.90
61016;DHT22;46902;52.920;6.536;2023-04-23T07:00:52;10.20;99.90
61016;DHT22;46902;52.920;6.536;2023-04-23T07:03:18;10.30;99.90
61016;DHT22;46902;52.920;6.536;2023-04-23T07:05:44;10.40;99.90
61016;DHT22;46902;52.920;6.536;2023-04-23T07:08:09;10.50;99.90
61016;DHT22;46902;52.920;6.536;2023-04-23T07:10:35;10.60;99.90
61016;DHT22;46902;52.920;6.536;2023-04-23T07:13:01;10.70;99.90
61016;DHT22;46902;52.920;6.536;2023-04-23T07:15:26;10.80;99.90
61016;DHT22;46902;52.920;6.536;2023-04-23T07:17:52;10.80;99.90
61016;DHT22;46902;52.920;6.536;2023-04-23T07:20:17;10.90;99.90
61016;DHT22;46902;52.920;6.536;2023-04-23T07:22:44;11.00;99.90
61016;DHT22;46902;52.920;6.536;2023-04-23T07:25:10;11.10;99.90
61016;DHT22;46902;52.920;6.536;2023-04-23T07:27:36;11.20;99.90
61016;DHT22;46902;52.920;6.536;2023-04-23T07:30:01;11.30;99.90
61016;DHT22;46902;52.920;6.536;2023-04-23T07:32:27;11.30;99.90
61016;DHT22;46902;52.920;6.536;2023-04-23T07:34:54;11.40;99.90
61016;DHT22;46902;52.920;6.536;2023-04-23T07:37:20;11.40;99.90
61016;DHT22;46902;52.920;6.536;2023-04-23T07:39:46;11.40;99.90
61016;DHT22;46902;52.920;6.536;2023-04-23T07:42:12;11.40;99.90
61016;DHT22;46902;52.920;6.536;2023-04-23T07:44:38;11.40;99.90
61016;DHT22;46902;52.920;6.536;2023-04-23T07:47:03;11.60;99.90
61016;DHT22;46902;52.920;6.536;2023-04-23T07:49:29;11.90;99.90
61016;DHT22;46902;52.920;6.536;2023-04-23T07:51:55;12.00;99.90
61016;DHT22;46902;52.920;6.536;2023-04-23T07:54:21;12.10;99.90
61016;DHT22;46902;52.920;6.536;2023-04-23T07:56:47;12.30;99.90
61016;DHT22;46902;52.920;6.536;2023-04-23T07:59:12;12.40;99.90
61016;DHT22;46902;52.920;6.536;2023-04-23T08:01:38;12.50;99.90
61016;DHT22;46902;52.920;6.536;2023-04-23T08:04:03;12.50;99.90
61016;DHT22;46902;52.920;6.536;2023-04-23T08:06:29;12.60;99.90
61016;DHT22;46902;52.920;6.536;2023-04-23T08:08:56;12.60;99.90
61016;DHT22;46902;52.920;6.536;2023-04-23T08:11:21;12.70;99.90
61016;DHT22;46902;52.920;6.536;2023-04-23T08:13:48;12.70;99.90
61016;DHT22;46902;52.920;6.536;2023-04-23T08:16:15;12.90;99.90
61016;DHT22;46902;52.920;6.536;2023-04-23T08:18:40;13.00;99.90
61016;DHT22;46902;52.920;6.536;2023-04-23T08:21:06;13.10;99.90
61016;DHT22;46902;52.920;6.536;2023-04-23T08:23:32;13.20;99.90
61016;DHT22;46902;52.920;6.536;2023-04-23T08:25:57;13.30;99.90
61016;DHT22;46902;52.920;6.536;2023-04-23T08:28:23;13.30;99.90
61016;DHT22;46902;52.920;6.536;2023-04-23T08:30:48;13.30;99.90
61016;DHT22;46902;52.920;6.536;2023-04-23T08:33:14;13.30;99.90
61016;DHT22;46902;52.920;6.536;2023-04-23T08:35:40;13.20;99.90
61016;DHT22;46902;52.920;6.536;2023-04-23T08:38:06;13.20;99.90
61016;DHT22;46902;52.920;6.536;2023-04-23T08:40:32;13.30;99.90
61016;DHT22;46902;52.920;6.536;2023-04-23T08:43:02;13.50;99.90
61016;DHT22;46902;52.920;6.536;2023-04-23T08:45:32;13.50;99.90
61016;DHT22;46902;52.920;6.536;2023-04-23T08:47:59;13.70;99.90
61016;DHT22;46902;52.920;6.536;2023-04-23T08:50:27;13.90;99.90
61016;DHT22;46902;52.920;6.536;2023-04-23T08:52:55;14.20;99.90
61016;DHT22;46902;52.920;6.536;2023-04-23T08:55:21;14.30;99.90
61016;DHT22;46902;52.920;6.536;2023-04-23T08:57:48;14.40;99.90
61016;DHT22;46902;52.920;6.536;2023-04-23T09:00:16;14.50;99.90
61016;DHT22;46902;52.920;6.536;2023-04-23T09:02:44;14.50;99.90
61016;DHT22;46902;52.920;6.536;2023-04-23T09:05:11;14.50;99.90
61016;DHT22;46902;52.920;6.536;2023-04-23T09:07:37;14.50;99.90
61016;DHT22;46902;52.920;6.536;2023-04-23T09:10:07;14.70;99.90
61016;DHT22;46902;52.920;6.536;2023-04-23T09:12:35;14.80;99.90
61016;DHT22;46902;52.920;6.536;2023-04-23T09:15:01;14.90;99.90
61016;DHT22;46902;52.920;6.536;2023-04-23T09:17:28;14.80;99.90
61016;DHT22;46902;52.920;6.536;2023-04-23T09:19:57;14.60;99.90
61016;DHT22;46902;52.920;6.536;2023-04-23T09:22:37;14.40;99.90
61016;DHT22;46902;52.920;6.536;2023-04-23T09:25:03;14.40;99.90
61016;DHT22;46902;52.920;6.536;2023-04-23T09:27:30;14.30;99.90
61016;DHT22;46902;52.920;6.536;2023-04-23T09:29:55;14.40;99.90
61016;DHT22;46902;52.920;6.536;2023-04-23T09:32:30;14.50;99.90
61016;DHT22;46902;52.920;6.536;2023-04-23T09:34:57;14.60;99.90
61016;DHT22;46902;52.920;6.536;2023-04-23T09:37:26;14.90;99.90
61016;DHT22;46902;52.920;6.536;2023-04-23T09:39:53;15.10;99.90
61016;DHT22;46902;52.920;6.536;2023-04-23T09:42:22;15.30;99.90
61016;DHT22;46902;52.920;6.536;2023-04-23T09:45:14;15.40;99.90
61016;DHT22;46902;52.920;6.536;2023-04-23T09:47:50;15.50;99.90
61016;DHT22;46902;52.920;6.536;2023-04-23T09:50:17;15.70;99.90
61016;DHT22;46902;52.920;6.536;2023-04-23T09:52:43;15.70;99.90
61016;DHT22;46902;52.920;6.536;2023-04-23T09:55:08;15.80;99.90
61016;DHT22;46902;52.920;6.536;2023-04-23T09:57:35;15.90;99.90
61016;DHT22;46902;52.920;6.536;2023-04-23T10:00:12;16.10;99.90
61016;DHT22;46902;52.920;6.536;2023-04-23T10:02:39;16.20;99.90
61016;DHT22;46902;52.920;6.536;2023-04-23T10:05:17;16.40;99.90
61016;DHT22;46902;52.920;6.536;2023-04-23T10:07:44;16.50;99.90
61016;DHT22;46902;52.920;6.536;2023-04-23T10:10:14;16.70;99.90
61016;DHT22;46902;52.920;6.536;2023-04-23T10:12:41;16.90;99.90
61016;DHT22;46902;52.920;6.536;2023-04-23T10:15:09;16.90;99.90
61016;DHT22;46902;52.920;6.536;2023-04-23T10:17:36;17.00;99.90
61016;DHT22;46902;52.920;6.536;2023-04-23T10:20:02;17.00;99.90
61016;DHT22;46902;52.920;6.536;2023-04-23T10:22:29;17.20;99.90
61016;DHT22;46902;52.920;6.536;2023-04-23T10:24:56;17.10;99.90
61016;DHT22;46902;52.920;6.536;2023-04-23T10:27:30;17.30;99.90
61016;DHT22;46902;52.920;6.536;2023-04-23T10:30:04;17.40;99.90
61016;DHT22;46902;52.920;6.536;2023-04-23T10:32:30;17.60;99.90
61016;DHT22;46902;52.920;6.536;2023-04-23T10:34:57;17.60;99.90
61016;DHT22;46902;52.920;6.536;2023-04-23T10:37:23;17.60;99.90
61016;DHT22;46902;52.920;6.536;2023-04-23T10:39:53;17.70;99.90
61016;DHT22;46902;52.920;6.536;2023-04-23T10:42:20;17.60;99.70
61016;DHT22;46902;52.920;6.536;2023-04-23T10:44:46;17.70;99.70
61016;DHT22;46902;52.920;6.536;2023-04-23T10:47:14;17.50;99.20
61016;DHT22;46902;52.920;6.536;2023-04-23T10:49:41;17.40;99.20
61016;DHT22;46902;52.920;6.536;2023-04-23T10:52:13;17.40;99.60
61016;DHT22;46902;52.920;6.536;2023-04-23T10:54:46;17.40;99.50
61016;DHT22;46902;52.920;6.536;2023-04-23T10:57:13;17.40;99.20
61016;DHT22;46902;52.920;6.536;2023-04-23T10:59:50;17.40;98.60
61016;DHT22;46902;52.920;6.536;2023-04-23T11:02:16;17.40;98.90
61016;DHT22;46902;52.920;6.536;2023-04-23T11:04:58;17.50;98.00
61016;DHT22;46902;52.920;6.536;2023-04-23T11:07:31;17.60;97.50
61016;DHT22;46902;52.920;6.536;2023-04-23T11:10:15;17.60;97.40
61016;DHT22;46902;52.920;6.536;2023-04-23T11:12:42;17.60;96.00
61016;DHT22;46902;52.920;6.536;2023-04-23T11:15:13;17.50;95.00
61016;DHT22;46902;52.920;6.536;2023-04-23T11:20:18;17.60;94.90
61016;DHT22;46902;52.920;6.536;2023-04-23T11:22:45;17.70;93.00
61016;DHT22;46902;52.920;6.536;2023-04-23T11:27:47;18.20;93.10
61016;DHT22;46902;52.920;6.536;2023-04-23T11:30:19;18.40;91.70
61016;DHT22;46902;52.920;6.536;2023-04-23T11:32:46;18.40;89.90
61016;DHT22;46902;52.920;6.536;2023-04-23T11:35:14;18.50;90.30
61016;DHT22;46902;52.920;6.536;2023-04-23T11:37:41;18.80;89.30
61016;DHT22;46902;52.920;6.536;2023-04-23T11:40:08;18.90;86.30
61016;DHT22;46902;52.920;6.536;2023-04-23T11:42:49;19.00;84.10
61016;DHT22;46902;52.920;6.536;2023-04-23T11:45:20;18.80;81.80
61016;DHT22;46902;52.920;6.536;2023-04-23T11:47:48;18.50;82.00
61016;DHT22;46902;52.920;6.536;2023-04-23T11:50:26;18.40;83.20
61016;DHT22;46902;52.920;6.536;2023-04-23T11:52:52;18.40;83.80
61016;DHT22;46902;52.920;6.536;2023-04-23T11:55:18;18.20;83.80
61016;DHT22;46902;52.920;6.536;2023-04-23T11:57:46;18.10;83.10
61016;DHT22;46902;52.920;6.536;2023-04-23T12:00:20;18.40;83.00
61016;DHT22;46902;52.920;6.536;2023-04-23T12:02:54;18.60;83.70
61016;DHT22;46902;52.920;6.536;2023-04-23T12:05:33;18.70;80.90
61016;DHT22;46902;52.920;6.536;2023-04-23T12:10:58;18.40;81.00
61016;DHT22;46902;52.920;6.536;2023-04-23T12:13:29;18.20;81.40
61016;DHT22;46902;52.920;6.536;2023-04-23T12:16:00;18.20;80.60
61016;DHT22;46902;52.920;6.536;2023-04-23T12:18:34;18.10;81.40
61016;DHT22;46902;52.920;6.536;2023-04-23T12:21:10;18.20;80.50
61016;DHT22;46902;52.920;6.536;2023-04-23T12:23:37;18.20;80.70
61016;DHT22;46902;52.920;6.536;2023-04-23T12:26:08;18.20;81.10
61016;DHT22;46902;52.920;6.536;2023-04-23T12:28:34;18.30;81.20
61016;DHT22;46902;52.920;6.536;2023-04-23T12:31:01;18.50;79.30
61016;DHT22;46902;52.920;6.536;2023-04-23T12:33:30;18.50;79.40
61016;DHT22;46902;52.920;6.536;2023-04-23T12:35:56;18.50;80.20
61016;DHT22;46902;52.920;6.536;2023-04-23T12:38:24;18.40;78.60
61016;DHT22;46902;52.920;6.536;2023-04-23T12:40:54;18.30;78.50
61016;DHT22;46902;52.920;6.536;2023-04-23T12:43:20;18.20;79.20
61016;DHT22;46902;52.920;6.536;2023-04-23T12:45:46;18.00;78.90
61016;DHT22;46902;52.920;6.536;2023-04-23T12:48:12;17.90;79.60
61016;DHT22;46902;52.920;6.536;2023-04-23T12:50:38;17.80;79.70
61016;DHT22;46902;52.920;6.536;2023-04-23T12:53:04;17.80;79.20
61016;DHT22;46902;52.920;6.536;2023-04-23T12:55:30;17.70;78.70
61016;DHT22;46902;52.920;6.536;2023-04-23T12:57:57;17.60;79.70
61016;DHT22;46902;52.920;6.536;2023-04-23T13:00:23;17.50;78.70
61016;DHT22;46902;52.920;6.536;2023-04-23T13:02:48;17.50;79.20
61016;DHT22;46902;52.920;6.536;2023-04-23T13:05:14;17.40;79.30
61016;DHT22;46902;52.920;6.536;2023-04-23T13:07:40;17.30;79.40
61016;DHT22;46902;52.920;6.536;2023-04-23T13:10:07;17.30;80.60
61016;DHT22;46902;52.920;6.536;2023-04-23T13:12:33;17.50;80.70
61016;DHT22;46902;52.920;6.536;2023-04-23T13:14:58;17.60;81.40
61016;DHT22;46902;52.920;6.536;2023-04-23T13:17:24;17.70;79.30
61016;DHT22;46902;52.920;6.536;2023-04-23T13:19:51;17.90;78.00
61016;DHT22;46902;52.920;6.536;2023-04-23T13:22:17;18.00;78.10
61016;DHT22;46902;52.920;6.536;2023-04-23T13:24:42;18.20;76.60
61016;DHT22;46902;52.920;6.536;2023-04-23T13:27:09;18.20;75.10
61016;DHT22;46902;52.920;6.536;2023-04-23T13:29:35;18.40;75.30
61016;DHT22;46902;52.920;6.536;2023-04-23T13:32:01;18.60;75.80
61016;DHT22;46902;52.920;6.536;2023-04-23T13:34:27;18.80;74.20
61016;DHT22;46902;52.920;6.536;2023-04-23T13:36:53;18.90;73.80
61016;DHT22;46902;52.920;6.536;2023-04-23T13:39:18;18.90;73.20
61016;DHT22;46902;52.920;6.536;2023-04-23T13:41:44;18.70;71.00
61016;DHT22;46902;52.920;6.536;2023-04-23T13:44:10;18.70;71.70
61016;DHT22;46902;52.920;6.536;2023-04-23T13:46:38;18.60;70.40
61016;DHT22;46902;52.920;6.536;2023-04-23T13:49:04;18.50;69.10
61016;DHT22;46902;52.920;6.536;2023-04-23T13:51:30;18.40;70.20
61016;DHT22;46902;52.920;6.536;2023-04-23T13:53:56;18.40;69.80
61016;DHT22;46902;52.920;6.536;2023-04-23T13:56:22;18.30;71.20
61016;DHT22;46902;52.920;6.536;2023-04-23T13:58:49;18.20;71.50
61016;DHT22;46902;52.920;6.536;2023-04-23T14:01:17;18.10;71.10
61016;DHT22;46902;52.920;6.536;2023-04-23T14:03:43;18.20;71.60
61016;DHT22;46902;52.920;6.536;2023-04-23T14:06:09;18.10;72.00
61016;DHT22;46902;52.920;6.536;2023-04-23T14:08:34;18.10;72.20
61016;DHT22;46902;52.920;6.536;2023-04-23T14:11:02;18.30;73.30
61016;DHT22;46902;52.920;6.536;2023-04-23T14:13:29;18.50;72.30
61016;DHT22;46902;52.920;6.536;2023-04-23T14:15:55;18.60;72.00
61016;DHT22;46902;52.920;6.536;2023-04-23T14:18:21;18.80;71.60
61016;DHT22;46902;52.920;6.536;2023-04-23T14:20:46;18.90;71.50
61016;DHT22;46902;52.920;6.536;2023-04-23T14:25:45;18.80;70.70
61016;DHT22;46902;52.920;6.536;2023-04-23T14:28:27;18.90;71.40
61016;DHT22;46902;52.920;6.536;2023-04-23T14:30:56;18.80;71.40
61016;DHT22;46902;52.920;6.536;2023-04-23T14:33:22;19.00;71.10
61016;DHT22;46902;52.920;6.536;2023-04-23T14:35:48;19.20;70.30
61016;DHT22;46902;52.920;6.536;2023-04-23T14:38:14;19.20;69.10
61016;DHT22;46902;52.920;6.536;2023-04-23T14:40:39;19.10;68.90
61016;DHT22;46902;52.920;6.536;2023-04-23T14:43:05;18.90;68.30
61016;DHT22;46902;52.920;6.536;2023-04-23T14:45:31;18.80;67.80
61016;DHT22;46902;52.920;6.536;2023-04-23T14:47:57;18.70;68.30
61016;DHT22;46902;52.920;6.536;2023-04-23T14:50:23;18.60;68.70
61016;DHT22;46902;52.920;6.536;2023-04-23T14:52:50;18.60;69.30
61016;DHT22;46902;52.920;6.536;2023-04-23T14:55:16;18.50;70.30
61016;DHT22;46902;52.920;6.536;2023-04-23T14:57:42;18.50;70.30
61016;DHT22;46902;52.920;6.536;2023-04-23T15:00:09;18.60;70.50
61016;DHT22;46902;52.920;6.536;2023-04-23T15:02:40;18.70;70.60
61016;DHT22;46902;52.920;6.536;2023-04-23T15:05:07;18.60;70.50
61016;DHT22;46902;52.920;6.536;2023-04-23T15:07:37;18.70;69.90
61016;DHT22;46902;52.920;6.536;2023-04-23T15:10:04;18.70;69.40
61016;DHT22;46902;52.920;6.536;2023-04-23T15:15:42;18.70;69.90
61016;DHT22;46902;52.920;6.536;2023-04-23T15:18:13;18.70;70.10
61016;DHT22;46902;52.920;6.536;2023-04-23T15:20:40;18.70;70.00
61016;DHT22;46902;52.920;6.536;2023-04-23T15:23:06;18.60;68.90
61016;DHT22;46902;52.920;6.536;2023-04-23T15:25:31;18.50;68.30
61016;DHT22;46902;52.920;6.536;2023-04-23T15:28:00;18.40;68.40
61016;DHT22;46902;52.920;6.536;2023-04-23T15:30:26;18.40;68.80
61016;DHT22;46902;52.920;6.536;2023-04-23T15:32:53;18.30;69.10
61016;DHT22;46902;52.920;6.536;2023-04-23T15:35:25;18.20;69.50
61016;DHT22;46902;52.920;6.536;2023-04-23T15:37:53;18.20;70.10
61016;DHT22;46902;52.920;6.536;2023-04-23T15:40:19;18.30;70.40
61016;DHT22;46902;52.920;6.536;2023-04-23T15:42:44;18.30;70.90
61016;DHT22;46902;52.920;6.536;2023-04-23T15:45:11;18.20;70.40
61016;DHT22;46902;52.920;6.536;2023-04-23T15:47:37;18.20;70.40
61016;DHT22;46902;52.920;6.536;2023-04-23T15:50:07;18.20;71.20